createdAt,value
2024-05-09T00:00:15.705Z,95906.00
2024-05-09T00:01:11.233Z,95903.00
2024-05-09T00:02:11.268Z,95902.00
2024-05-09T00:03:12.120Z,95902.00
2024-05-09T00:04:11.347Z,95901.00
2024-05-09T00:05:11.662Z,95901.00
2024-05-09T00:06:11.402Z,95901.00
2024-05-09T00:07:11.333Z,95900.00
2024-05-09T00:08:11.723Z,95900.00
2024-05-09T00:09:11.374Z,95899.00
2024-05-09T00:10:18.311Z,95898.00
2024-05-09T00:11:11.512Z,95897.00
2024-05-09T00:12:11.517Z,95897.00
2024-05-09T00:13:11.614Z,95895.00
2024-05-09T00:14:11.557Z,95894.00
2024-05-09T00:15:11.511Z,95893.00
2024-05-09T00:16:11.535Z,95890.00
2024-05-09T00:17:11.677Z,95891.00
2024-05-09T00:18:11.878Z,95889.00
2024-05-09T00:19:11.842Z,95889.00
2024-05-09T00:20:17.731Z,95886.00
2024-05-09T00:21:11.673Z,95888.00
2024-05-09T00:22:11.657Z,95886.00
2024-05-09T00:23:12.797Z,95883.00
2024-05-09T00:24:11.697Z,95884.00
2024-05-09T00:25:11.727Z,95885.00
2024-05-09T00:26:11.810Z,95886.00
2024-05-09T00:27:13.336Z,95886.00
2024-05-09T00:28:12.190Z,95884.00
2024-05-09T00:29:12.106Z,95884.00
2024-05-09T00:30:17.796Z,95886.00
2024-05-09T00:31:12.187Z,95884.00
2024-05-09T00:32:12.282Z,95883.00
2024-05-09T00:33:12.426Z,95883.00
2024-05-09T00:34:12.393Z,95883.00
2024-05-09T00:35:12.408Z,95880.00
2024-05-09T00:36:12.343Z,95881.00
2024-05-09T00:37:12.375Z,95880.00
2024-05-09T00:38:12.453Z,95878.00
2024-05-09T00:39:12.461Z,95880.00
2024-05-09T00:40:18.714Z,95879.00
2024-05-09T00:41:12.530Z,95880.00
2024-05-09T00:42:12.488Z,95877.00
2024-05-09T00:43:13.917Z,95879.00
2024-05-09T00:44:12.566Z,95876.00
2024-05-09T00:45:12.567Z,95879.00
2024-05-09T00:46:12.616Z,95878.00
2024-05-09T00:47:12.686Z,95875.00
2024-05-09T00:48:15.146Z,95877.00
2024-05-09T00:49:12.811Z,95877.00
2024-05-09T00:50:15.943Z,95878.00
2024-05-09T00:51:12.859Z,95873.00
2024-05-09T00:52:12.737Z,95876.00
2024-05-09T00:53:12.912Z,95873.00
2024-05-09T00:54:12.817Z,95873.00
2024-05-09T00:55:12.848Z,95871.00
2024-05-09T00:56:12.910Z,95871.00
2024-05-09T00:57:12.893Z,95871.00
2024-05-09T00:58:12.926Z,95870.00
2024-05-09T00:59:13.067Z,95871.00
2024-05-09T01:00:22.571Z,95870.00
2024-05-09T01:01:13.027Z,95869.00
2024-05-09T01:02:13.224Z,95868.00
2024-05-09T01:03:14.358Z,95866.00
2024-05-09T01:04:13.289Z,95864.00
2024-05-09T01:05:13.412Z,95866.00
2024-05-09T01:06:13.387Z,95864.00
2024-05-09T01:07:13.440Z,95862.00
2024-05-09T01:08:13.681Z,95862.00
2024-05-09T01:09:13.583Z,95861.00
2024-05-09T01:10:20.846Z,95862.00
2024-05-09T01:11:13.712Z,95862.00
2024-05-09T01:12:14.022Z,95861.00
2024-05-09T01:13:13.787Z,95859.00
2024-05-09T01:14:13.902Z,95858.00
2024-05-09T01:15:13.792Z,95858.00
2024-05-09T01:16:13.820Z,95858.00
2024-05-09T01:17:13.953Z,95856.00
2024-05-09T01:18:14.349Z,95857.00
2024-05-09T01:19:14.093Z,95858.00
2024-05-09T01:20:20.145Z,95856.00
2024-05-09T01:21:14.263Z,95857.00
2024-05-09T01:22:13.972Z,95857.00
2024-05-09T01:23:15.708Z,95856.00
2024-05-09T01:24:13.976Z,95855.00
2024-05-09T01:25:13.991Z,95857.00
2024-05-09T01:26:14.082Z,95857.00
2024-05-09T01:27:14.061Z,95857.00
2024-05-09T01:28:14.086Z,95857.00
2024-05-09T01:29:14.135Z,95854.00
2024-05-09T01:31:13.111Z,95858.00
2024-05-09T01:32:14.317Z,95855.00
2024-05-09T01:33:14.566Z,95856.00
2024-05-09T01:34:14.211Z,95854.00
2024-05-09T01:35:14.282Z,95856.00
2024-05-09T01:36:14.208Z,95853.00
2024-05-09T01:37:14.241Z,95854.00
2024-05-09T01:38:14.402Z,95851.00
2024-05-09T01:39:14.268Z,95848.00
2024-05-09T01:40:18.458Z,95849.00
2024-05-09T01:41:14.312Z,95848.00
2024-05-09T01:42:14.315Z,95848.00
2024-05-09T01:43:14.338Z,95847.00
2024-05-09T01:44:14.403Z,95845.00
2024-05-09T01:45:14.390Z,95844.00
2024-05-09T01:46:14.426Z,95842.00
2024-05-09T01:47:14.606Z,95842.00
2024-05-09T01:48:14.730Z,95842.00
2024-05-09T01:49:14.652Z,95841.00
2024-05-09T01:51:13.655Z,95839.00
2024-05-09T01:52:14.587Z,95840.00
2024-05-09T01:53:15.314Z,95842.00
2024-05-09T01:54:14.626Z,95841.00
2024-05-09T01:55:14.641Z,95841.00
2024-05-09T01:56:14.715Z,95841.00
2024-05-09T01:57:14.669Z,95840.00
2024-05-09T01:58:14.685Z,95838.00
2024-05-09T01:59:14.788Z,95841.00
2024-05-09T02:01:13.780Z,95842.00
2024-05-09T02:02:14.974Z,95839.00
2024-05-09T02:03:17.036Z,95840.00
2024-05-09T02:04:14.957Z,95840.00
2024-05-09T02:05:14.912Z,95840.00
2024-05-09T02:06:14.953Z,95842.00
2024-05-09T02:07:14.884Z,95842.00
2024-05-09T02:08:15.170Z,95843.00
2024-05-09T02:09:14.927Z,95841.00
2024-05-09T02:10:20.447Z,95841.00
2024-05-09T02:11:15.030Z,95841.00
2024-05-09T02:12:15.128Z,95842.00
2024-05-09T02:13:15.040Z,95843.00
2024-05-09T02:14:15.080Z,95842.00
2024-05-09T02:15:15.045Z,95841.00
2024-05-09T02:16:15.072Z,95842.00
2024-05-09T02:17:15.300Z,95842.00
2024-05-09T02:18:15.314Z,95840.00
2024-05-09T02:19:15.303Z,95836.00
2024-05-09T02:20:22.442Z,95841.00
2024-05-09T02:21:15.189Z,95840.00
2024-05-09T02:22:15.180Z,95839.00
2024-05-09T02:23:15.214Z,95839.00
2024-05-09T02:24:15.211Z,95838.00
2024-05-09T02:25:15.250Z,95836.00
2024-05-09T02:26:15.364Z,95835.00
2024-05-09T02:27:15.296Z,95834.00
2024-05-09T02:28:15.317Z,95833.00
2024-05-09T02:29:15.444Z,95836.00
2024-05-09T02:30:22.800Z,95836.00
2024-05-09T02:31:15.374Z,95838.00
2024-05-09T02:32:15.451Z,95837.00
2024-05-09T02:33:15.545Z,95835.00
2024-05-09T02:34:15.519Z,95838.00
2024-05-09T02:35:15.502Z,95835.00
2024-05-09T02:36:15.486Z,95837.00
2024-05-09T02:37:15.530Z,95831.00
2024-05-09T02:38:15.586Z,95832.00
2024-05-09T02:39:15.549Z,95831.00
2024-05-09T02:40:21.618Z,95830.00
2024-05-09T02:41:15.626Z,95828.00
2024-05-09T02:42:15.624Z,95830.00
2024-05-09T02:43:15.654Z,95830.00
2024-05-09T02:44:15.702Z,95832.00
2024-05-09T02:45:15.695Z,95830.00
2024-05-09T02:46:15.746Z,95828.00
2024-05-09T02:47:15.866Z,95828.00
2024-05-09T02:48:15.988Z,95831.00
2024-05-09T02:49:15.930Z,95830.00
2024-05-09T02:50:23.040Z,95830.00
2024-05-09T02:51:15.963Z,95831.00
2024-05-09T02:52:15.862Z,95832.00
2024-05-09T02:53:15.951Z,95831.00
2024-05-09T02:54:15.960Z,95835.00
2024-05-09T02:55:15.994Z,95834.00
2024-05-09T02:56:16.019Z,95834.00
2024-05-09T02:57:16.010Z,95834.00
2024-05-09T02:58:16.033Z,95835.00
2024-05-09T02:59:16.121Z,95835.00
2024-05-09T03:00:22.596Z,95837.00
2024-05-09T03:01:16.188Z,95836.00
2024-05-09T03:02:16.255Z,95836.00
2024-05-09T03:03:16.353Z,95835.00
2024-05-09T03:04:16.284Z,95836.00
2024-05-09T03:05:16.263Z,95836.00
2024-05-09T03:06:16.217Z,95837.00
2024-05-09T03:07:17.771Z,95836.00
2024-05-09T03:08:16.301Z,95838.00
2024-05-09T03:09:16.268Z,95837.00
2024-05-09T03:10:22.289Z,95837.00
2024-05-09T03:11:16.423Z,95837.00
2024-05-09T03:12:16.448Z,95837.00
2024-05-09T03:13:16.658Z,95838.00
2024-05-09T03:14:16.466Z,95837.00
2024-05-09T03:15:16.445Z,95837.00
2024-05-09T03:16:16.492Z,95835.00
2024-05-09T03:17:16.558Z,95836.00
2024-05-09T03:18:16.666Z,95836.00
2024-05-09T03:19:16.664Z,95836.00
2024-05-09T03:21:15.630Z,95837.00
2024-05-09T03:22:16.641Z,95837.00
2024-05-09T03:23:16.785Z,95838.00
2024-05-09T03:24:16.686Z,95839.00
2024-05-09T03:25:16.722Z,95841.00
2024-05-09T03:26:16.823Z,95839.00
2024-05-09T03:27:16.768Z,95841.00
2024-05-09T03:28:16.809Z,95842.00
2024-05-09T03:29:16.856Z,95840.00
2024-05-09T03:30:29.152Z,95841.00
2024-05-09T03:31:16.896Z,95842.00
2024-05-09T03:32:16.996Z,95841.00
2024-05-09T03:33:18.356Z,95842.00
2024-05-09T03:34:16.981Z,95840.00
2024-05-09T03:35:16.982Z,95840.00
2024-05-09T03:36:17.019Z,95839.00
2024-05-09T03:37:17.049Z,95839.00
2024-05-09T03:38:17.378Z,95838.00
2024-05-09T03:39:17.111Z,95838.00
2024-05-09T03:40:20.917Z,95839.00
2024-05-09T03:41:17.180Z,95839.00
2024-05-09T03:42:17.214Z,95840.00
2024-05-09T03:43:17.223Z,95842.00
2024-05-09T03:44:17.280Z,95840.00
2024-05-09T03:45:17.276Z,95839.00
2024-05-09T03:46:17.315Z,95838.00
2024-05-09T03:47:17.405Z,95839.00
2024-05-09T03:48:17.666Z,95837.00
2024-05-09T03:49:17.565Z,95837.00
2024-05-09T03:50:22.881Z,95837.00
2024-05-09T03:51:17.495Z,95836.00
2024-05-09T03:52:17.460Z,95835.00
2024-05-09T03:53:17.577Z,95837.00
2024-05-09T03:54:17.495Z,95839.00
2024-05-09T03:55:17.515Z,95838.00
2024-05-09T03:56:17.580Z,95841.00
2024-05-09T03:57:17.578Z,95842.00
2024-05-09T03:58:17.612Z,95843.00
2024-05-09T03:59:17.675Z,95844.00
2024-05-09T04:00:25.318Z,95846.00
2024-05-09T04:01:17.708Z,95850.00
2024-05-09T04:02:17.799Z,95850.00
2024-05-09T04:03:18.019Z,95852.00
2024-05-09T04:04:17.767Z,95854.00
2024-05-09T04:05:17.809Z,95854.00
2024-05-09T04:06:17.800Z,95857.00
2024-05-09T04:07:17.822Z,95856.00
2024-05-09T04:08:17.909Z,95858.00
2024-05-09T04:09:17.867Z,95858.00
2024-05-09T04:10:27.380Z,95857.00
2024-05-09T04:11:18.009Z,95857.00
2024-05-09T04:12:18.166Z,95855.00
2024-05-09T04:13:17.964Z,95857.00
2024-05-09T04:14:18.196Z,95855.00
2024-05-09T04:15:18.026Z,95855.00
2024-05-09T04:16:18.041Z,95854.00
2024-05-09T04:17:18.078Z,95854.00
2024-05-09T04:18:18.194Z,95853.00
2024-05-09T04:19:18.371Z,95854.00
2024-05-09T04:20:28.785Z,95855.00
2024-05-09T04:21:18.188Z,95853.00
2024-05-09T04:22:18.182Z,95855.00
2024-05-09T04:23:18.281Z,95857.00
2024-05-09T04:24:18.219Z,95857.00
2024-05-09T04:25:18.293Z,95857.00
2024-05-09T04:26:18.356Z,95858.00
2024-05-09T04:27:18.342Z,95859.00
2024-05-09T04:28:18.383Z,95861.00
2024-05-09T04:29:18.460Z,95862.00
2024-05-09T04:30:25.434Z,95865.00
2024-05-09T04:31:18.447Z,95863.00
2024-05-09T04:32:18.549Z,95864.00
2024-05-09T04:33:18.803Z,95867.00
2024-05-09T04:34:18.728Z,95864.00
2024-05-09T04:35:18.592Z,95864.00
2024-05-09T04:36:18.569Z,95861.00
2024-05-09T04:37:18.585Z,95865.00
2024-05-09T04:38:18.662Z,95863.00
2024-05-09T04:39:18.637Z,95862.00
2024-05-09T04:40:27.784Z,95864.00
2024-05-09T04:41:18.731Z,95862.00
2024-05-09T04:42:18.724Z,95864.00
2024-05-09T04:43:18.954Z,95866.00
2024-05-09T04:44:18.842Z,95867.00
2024-05-09T04:45:18.827Z,95867.00
2024-05-09T04:46:19.057Z,95869.00
2024-05-09T04:47:18.998Z,95870.00
2024-05-09T04:48:19.030Z,95872.00
2024-05-09T04:49:18.983Z,95872.00
2024-05-09T04:50:29.028Z,95875.00
2024-05-09T04:51:31.346Z,95878.00
2024-05-09T04:52:33.188Z,95878.00
2024-05-09T04:53:32.440Z,95878.00
2024-05-09T04:54:36.284Z,95877.00
2024-05-09T04:55:32.485Z,95877.00
2024-05-09T04:56:32.492Z,95879.00
2024-05-09T04:57:32.461Z,95879.00
2024-05-09T04:58:32.498Z,95877.00
2024-05-09T04:59:32.591Z,95877.00
2024-05-09T05:00:36.728Z,95880.00
2024-05-09T05:01:32.699Z,95879.00
2024-05-09T05:02:32.742Z,95881.00
2024-05-09T05:03:32.924Z,95880.00
2024-05-09T05:04:32.719Z,95880.00
2024-05-09T05:05:32.743Z,95880.00
2024-05-09T05:06:32.690Z,95879.00
2024-05-09T05:07:32.686Z,95882.00
2024-05-09T05:08:32.818Z,95881.00
2024-05-09T05:09:32.683Z,95879.00
2024-05-09T05:10:35.955Z,95880.00
2024-05-09T05:11:32.762Z,95880.00
2024-05-09T05:12:32.724Z,95879.00
2024-05-09T05:13:32.704Z,95880.00
2024-05-09T05:14:32.761Z,95882.00
2024-05-09T05:15:32.684Z,95880.00
2024-05-09T05:16:32.785Z,95883.00
2024-05-09T05:17:32.906Z,95882.00
2024-05-09T05:18:32.835Z,95882.00
2024-05-09T05:19:33.066Z,95884.00
2024-05-09T05:20:34.098Z,95883.00
2024-05-09T05:21:33.025Z,95885.00
2024-05-09T05:22:33.054Z,95884.00
2024-05-09T05:23:33.166Z,95884.00
2024-05-09T05:24:33.106Z,95883.00
2024-05-09T05:25:33.144Z,95883.00
2024-05-09T05:26:33.293Z,95883.00
2024-05-09T05:27:33.200Z,95883.00
2024-05-09T05:28:33.229Z,95881.00
2024-05-09T05:29:33.300Z,95882.00
2024-05-09T05:30:34.974Z,95883.00
2024-05-09T05:31:33.367Z,95883.00
2024-05-09T05:32:33.447Z,95884.00
2024-05-09T05:33:33.457Z,95887.00
2024-05-09T05:34:33.363Z,95884.00
2024-05-09T05:35:33.596Z,95886.00
2024-05-09T05:36:33.387Z,95885.00
2024-05-09T05:37:33.408Z,95887.00
2024-05-09T05:38:33.445Z,95886.00
2024-05-09T05:39:33.432Z,95885.00
2024-05-09T05:40:36.941Z,95886.00
2024-05-09T05:41:33.542Z,95885.00
2024-05-09T05:42:33.440Z,95880.00
2024-05-09T05:43:33.453Z,95882.00
2024-05-09T05:44:33.563Z,95882.00
2024-05-09T05:45:33.486Z,95880.00
2024-05-09T05:46:33.501Z,95879.00
2024-05-09T05:47:33.635Z,95880.00
2024-05-09T05:48:33.601Z,95880.00
2024-05-09T05:49:33.630Z,95881.00
2024-05-09T05:50:36.566Z,95880.00
2024-05-09T05:51:33.782Z,95881.00
2024-05-09T05:52:33.801Z,95882.00
2024-05-09T05:53:33.970Z,95883.00
2024-05-09T05:54:33.889Z,95883.00
2024-05-09T05:55:33.961Z,95884.00
2024-05-09T05:56:34.099Z,95886.00
2024-05-09T05:57:34.001Z,95888.00
2024-05-09T05:58:34.068Z,95885.00
2024-05-09T05:59:34.285Z,95886.00
2024-05-09T06:00:38.062Z,95886.00
2024-05-09T06:01:34.310Z,95887.00
2024-05-09T06:02:34.389Z,95888.00
2024-05-09T06:03:34.335Z,95889.00
2024-05-09T06:04:34.368Z,95888.00
2024-05-09T06:05:35.315Z,95888.00
2024-05-09T06:06:34.283Z,95887.00
2024-05-09T06:07:34.292Z,95887.00
2024-05-09T06:08:34.392Z,95885.00
2024-05-09T06:09:34.331Z,95888.00
2024-05-09T06:10:38.574Z,95887.00
2024-05-09T06:11:34.423Z,95886.00
2024-05-09T06:12:34.335Z,95883.00
2024-05-09T06:13:34.362Z,95884.00
2024-05-09T06:14:34.422Z,95884.00
2024-05-09T06:15:34.512Z,95883.00
2024-05-09T06:16:34.378Z,95885.00
2024-05-09T06:17:34.522Z,95886.00
2024-05-09T06:18:34.538Z,95887.00
2024-05-09T06:19:34.460Z,95887.00
2024-05-09T06:20:37.155Z,95889.00
2024-05-09T06:21:34.438Z,95891.00
2024-05-09T06:22:34.423Z,95891.00
2024-05-09T06:23:34.579Z,95893.00
2024-05-09T06:24:34.422Z,95894.00
2024-05-09T06:25:34.430Z,95892.00
2024-05-09T06:26:34.532Z,95893.00
2024-05-09T06:27:34.456Z,95892.00
2024-05-09T06:28:34.452Z,95891.00
2024-05-09T06:29:34.491Z,95891.00
2024-05-09T06:30:38.916Z,95890.00
2024-05-09T06:31:34.464Z,95890.00
2024-05-09T06:32:34.589Z,95892.00
2024-05-09T06:33:34.754Z,95890.00
2024-05-09T06:34:34.607Z,95891.00
2024-05-09T06:35:34.703Z,95890.00
2024-05-09T06:36:34.539Z,95891.00
2024-05-09T06:37:34.561Z,95890.00
2024-05-09T06:38:34.676Z,95891.00
2024-05-09T06:39:34.577Z,95894.00
2024-05-09T06:40:38.319Z,95893.00
2024-05-09T06:41:34.741Z,95893.00
2024-05-09T06:42:34.601Z,95896.00
2024-05-09T06:43:34.624Z,95893.00
2024-05-09T06:44:34.733Z,95893.00
2024-05-09T06:45:34.648Z,95895.00
2024-05-09T06:46:34.660Z,95895.00
2024-05-09T06:47:34.990Z,95896.00
2024-05-09T06:48:34.783Z,95895.00
2024-05-09T06:49:34.794Z,95896.00
2024-05-09T06:50:37.795Z,95894.00
2024-05-09T06:51:34.821Z,95895.00
2024-05-09T06:52:34.883Z,95896.00
2024-05-09T06:53:35.080Z,95897.00
2024-05-09T06:54:34.975Z,95896.00
2024-05-09T06:55:35.020Z,95895.00
2024-05-09T06:56:35.074Z,95894.00
2024-05-09T06:57:35.102Z,95894.00
2024-05-09T06:58:35.178Z,95893.00
2024-05-09T06:59:35.390Z,95895.00
2024-05-09T07:00:39.368Z,95893.00
2024-05-09T07:01:35.393Z,95894.00
2024-05-09T07:02:35.488Z,95893.00
2024-05-09T07:03:35.482Z,95890.00
2024-05-09T07:04:35.666Z,95890.00
2024-05-09T07:05:35.434Z,95889.00
2024-05-09T07:06:35.373Z,95891.00
2024-05-09T07:07:35.407Z,95889.00
2024-05-09T07:08:35.503Z,95890.00
2024-05-09T07:09:35.403Z,95891.00
2024-05-09T07:10:36.399Z,95891.00
2024-05-09T07:11:35.735Z,95888.00
2024-05-09T07:12:35.604Z,95888.00
2024-05-09T07:13:35.701Z,95886.00
2024-05-09T07:14:38.016Z,95887.00
2024-05-09T07:15:35.697Z,95885.00
2024-05-09T07:16:35.693Z,95887.00
2024-05-09T07:17:35.844Z,95887.00
2024-05-09T07:18:36.077Z,95887.00
2024-05-09T07:19:35.796Z,95887.00
2024-05-09T07:20:35.842Z,95887.00
2024-05-09T07:21:35.740Z,95889.00
2024-05-09T07:22:35.733Z,95889.00
2024-05-09T07:23:35.831Z,95887.00
2024-05-09T07:24:35.754Z,95888.00
2024-05-09T07:25:35.770Z,95887.00
2024-05-09T07:26:35.855Z,95886.00
2024-05-09T07:27:35.773Z,95885.00
2024-05-09T07:28:35.774Z,95884.00
2024-05-09T07:29:38.299Z,95883.00
2024-05-09T07:30:35.858Z,95882.00
2024-05-09T07:31:35.847Z,95879.00
2024-05-09T07:32:35.995Z,95879.00
2024-05-09T07:33:35.939Z,95877.00
2024-05-09T07:34:36.096Z,95878.00
2024-05-09T07:35:36.123Z,95877.00
2024-05-09T07:36:35.908Z,95877.00
2024-05-09T07:37:35.957Z,95876.00
2024-05-09T07:38:36.141Z,95877.00
2024-05-09T07:39:35.964Z,95875.00
2024-05-09T07:40:37.029Z,95877.00
2024-05-09T07:41:36.225Z,95877.00
2024-05-09T07:42:35.993Z,95875.00
2024-05-09T07:43:35.996Z,95874.00
2024-05-09T07:44:36.062Z,95874.00
2024-05-09T07:50:34.372Z,95869.00
2024-05-09T07:52:23.952Z,95868.00
2024-05-09T07:53:33.309Z,95867.00
2024-05-09T07:53:42.941Z,95867.00
2024-05-09T07:54:36.215Z,95864.00
2024-05-09T07:55:36.260Z,95865.00
2024-05-09T07:56:36.393Z,95866.00
2024-05-09T07:57:36.162Z,95865.00
2024-05-09T07:58:36.118Z,95864.00
2024-05-09T07:59:37.941Z,95864.00
2024-05-09T08:00:36.191Z,95865.00
2024-05-09T08:01:36.289Z,95864.00
2024-05-09T08:02:36.212Z,95863.00
2024-05-09T08:03:36.380Z,95863.00
2024-05-09T08:04:36.304Z,95862.00
2024-05-09T08:05:36.279Z,95862.00
2024-05-09T08:06:36.202Z,95863.00
2024-05-09T08:07:36.171Z,95862.00
2024-05-09T08:08:36.178Z,95859.00
2024-05-09T08:09:38.000Z,95860.00
2024-05-09T08:10:36.216Z,95859.00
2024-05-09T08:11:36.268Z,95859.00
2024-05-09T08:12:36.237Z,95858.00
2024-05-09T08:13:36.223Z,95860.00
2024-05-09T08:14:36.221Z,95859.00
2024-05-09T08:15:36.277Z,95859.00
2024-05-09T08:16:36.299Z,95859.00
2024-05-09T08:17:36.284Z,95858.00
2024-05-09T08:18:36.401Z,95858.00
2024-05-09T08:19:36.284Z,95857.00
2024-05-09T08:20:36.308Z,95855.00
2024-05-09T08:21:36.371Z,95856.00
2024-05-09T08:22:36.310Z,95855.00
2024-05-09T08:23:36.449Z,95851.00
2024-05-09T08:24:36.388Z,95852.00
2024-05-09T08:25:36.420Z,95852.00
2024-05-09T08:26:36.334Z,95849.00
2024-05-09T08:27:36.354Z,95851.00
2024-05-09T08:28:36.351Z,95850.00
2024-05-09T08:29:36.545Z,95850.00
2024-05-09T08:30:37.935Z,95850.00
2024-05-09T08:31:36.420Z,95850.00
2024-05-09T08:32:36.430Z,95851.00
2024-05-09T08:33:36.854Z,95849.00
2024-05-09T08:34:36.445Z,95848.00
2024-05-09T08:35:36.415Z,95846.00
2024-05-09T08:36:36.457Z,95846.00
2024-05-09T08:37:38.924Z,95847.00
2024-05-09T08:38:36.439Z,95847.00
2024-05-09T08:39:36.466Z,95844.00
2024-05-09T08:40:37.920Z,95843.00
2024-05-09T08:41:36.478Z,95842.00
2024-05-09T08:42:36.566Z,95842.00
2024-05-09T08:43:38.223Z,95841.00
2024-05-09T08:44:36.496Z,95842.00
2024-05-09T08:45:36.662Z,95841.00
2024-05-09T08:46:36.536Z,95840.00
2024-05-09T08:47:36.627Z,95839.00
2024-05-09T08:48:36.711Z,95836.00
2024-05-09T08:49:37.699Z,95834.00
2024-05-09T08:50:39.258Z,95833.00
2024-05-09T08:51:36.562Z,95834.00
2024-05-09T08:52:36.549Z,95833.00
2024-05-09T08:53:36.560Z,95832.00
2024-05-09T08:54:36.576Z,95832.00
2024-05-09T08:55:39.246Z,95833.00
2024-05-09T08:56:36.582Z,95834.00
2024-05-09T08:57:36.643Z,95834.00
2024-05-09T08:58:36.603Z,95837.00
2024-05-09T08:59:36.633Z,95838.00
2024-05-09T09:00:37.752Z,95837.00
2024-05-09T09:01:38.045Z,95838.00
2024-05-09T09:02:36.733Z,95836.00
2024-05-09T09:03:37.008Z,95838.00
2024-05-09T09:04:36.718Z,95838.00
2024-05-09T09:05:37.022Z,95836.00
2024-05-09T09:06:36.731Z,95834.00
2024-05-09T09:07:36.725Z,95834.00
2024-05-09T09:08:36.671Z,95832.00
2024-05-09T09:09:36.744Z,95832.00
2024-05-09T09:10:36.842Z,95831.00
2024-05-09T09:11:36.704Z,95832.00
2024-05-09T09:12:36.717Z,95832.00
2024-05-09T09:13:36.697Z,95833.00
2024-05-09T09:14:36.705Z,95830.00
2024-05-09T09:15:36.773Z,95835.00
2024-05-09T09:16:36.749Z,95833.00
2024-05-09T09:17:36.848Z,95835.00
2024-05-09T09:18:36.956Z,95831.00
2024-05-09T09:19:36.787Z,95831.00
2024-05-09T09:20:37.258Z,95831.00
2024-05-09T09:21:36.851Z,95829.00
2024-05-09T09:22:36.788Z,95827.00
2024-05-09T09:23:36.789Z,95823.00
2024-05-09T09:24:36.941Z,95823.00
2024-05-09T09:25:36.823Z,95822.00
2024-05-09T09:26:36.927Z,95826.00
2024-05-09T09:27:37.032Z,95824.00
2024-05-09T09:28:37.110Z,95821.00
2024-05-09T09:29:37.188Z,95821.00
2024-05-09T09:30:38.197Z,95819.00
2024-05-09T09:31:37.395Z,95818.00
2024-05-09T09:32:37.466Z,95818.00
2024-05-09T09:33:37.663Z,95817.00
2024-05-09T09:34:37.481Z,95816.00
2024-05-09T09:35:37.522Z,95811.00
2024-05-09T09:36:37.674Z,95808.00
2024-05-09T09:37:37.723Z,95807.00
2024-05-09T09:38:37.963Z,95803.00
2024-05-09T09:39:37.949Z,95802.00
2024-05-09T09:40:42.528Z,95801.00
2024-05-09T09:41:38.045Z,95798.00
2024-05-09T09:42:38.140Z,95791.00
2024-05-09T09:43:38.113Z,95791.00
2024-05-09T09:45:37.088Z,95791.00
2024-05-09T09:46:38.148Z,95791.00
2024-05-09T09:47:38.211Z,95789.00
2024-05-09T09:48:38.300Z,95790.00
2024-05-09T09:49:38.275Z,95788.00
2024-05-09T09:50:38.281Z,95787.00
2024-05-09T09:51:38.406Z,95789.00
2024-05-09T09:52:38.477Z,95790.00
2024-05-09T09:53:38.744Z,95792.00
2024-05-09T09:54:38.701Z,95792.00
2024-05-09T09:55:38.795Z,95789.00
2024-05-09T09:56:38.905Z,95788.00
2024-05-09T09:57:39.041Z,95787.00
2024-05-09T09:58:39.136Z,95788.00
2024-05-09T09:59:39.225Z,95785.00
2024-05-09T10:00:39.570Z,95785.00
2024-05-09T10:01:39.532Z,95784.00
2024-05-09T10:02:39.562Z,95784.00
2024-05-09T10:03:39.903Z,95784.00
2024-05-09T10:04:39.961Z,95786.00
2024-05-09T10:05:42.183Z,95782.00
2024-05-09T10:06:39.912Z,95782.00
2024-05-09T10:07:39.917Z,95781.00
2024-05-09T10:08:39.956Z,95778.00
2024-05-09T10:09:40.015Z,95776.00
2024-05-09T10:10:40.291Z,95778.00
2024-05-09T10:11:45.383Z,95776.00
2024-05-09T10:12:40.134Z,95776.00
2024-05-09T10:13:40.076Z,95777.00
2024-05-09T10:14:40.106Z,95775.00
2024-05-09T10:15:40.106Z,95776.00
2024-05-09T10:16:40.110Z,95774.00
2024-05-09T10:17:40.260Z,95774.00
2024-05-09T10:18:40.417Z,95773.00
2024-05-09T10:19:40.185Z,95771.00
2024-05-09T10:20:40.136Z,95770.00
2024-05-09T10:21:40.191Z,95767.00
2024-05-09T10:22:40.120Z,95764.00
2024-05-09T10:23:40.139Z,95763.00
2024-05-09T10:24:40.176Z,95760.00
2024-05-09T10:25:40.140Z,95757.00
2024-05-09T10:26:40.191Z,95761.00
2024-05-09T10:27:40.230Z,95759.00
2024-05-09T10:28:40.192Z,95756.00
2024-05-09T10:29:40.201Z,95755.00
2024-05-09T10:30:43.024Z,95754.00
2024-05-09T10:31:40.260Z,95751.00
2024-05-09T10:32:40.364Z,95751.00
2024-05-09T10:33:40.512Z,95752.00
2024-05-09T10:34:40.249Z,95749.00
2024-05-09T10:35:40.222Z,95751.00
2024-05-09T10:36:40.265Z,95751.00
2024-05-09T10:37:40.231Z,95747.00
2024-05-09T10:38:40.244Z,95752.00
2024-05-09T10:39:40.289Z,95751.00
2024-05-09T10:40:40.359Z,95750.00
2024-05-09T10:41:40.370Z,95751.00
2024-05-09T10:42:40.302Z,95753.00
2024-05-09T10:43:40.256Z,95751.00
2024-05-09T10:44:40.269Z,95751.00
2024-05-09T10:45:40.319Z,95754.00
2024-05-09T10:46:40.250Z,95753.00
2024-05-09T10:47:40.355Z,95748.00
2024-05-09T10:48:40.365Z,95749.00
2024-05-09T10:49:40.349Z,95746.00
2024-05-09T10:50:40.303Z,95748.00
2024-05-09T10:51:40.358Z,95746.00
2024-05-09T10:52:40.508Z,95746.00
2024-05-09T10:53:40.313Z,95745.00
2024-05-09T10:54:40.383Z,95747.00
2024-05-09T10:55:40.367Z,95746.00
2024-05-09T10:56:40.349Z,95745.00
2024-05-09T10:57:40.411Z,95744.00
2024-05-09T10:58:40.418Z,95742.00
2024-05-09T10:59:40.359Z,95739.00
2024-05-09T11:00:40.434Z,95738.00
2024-05-09T11:01:40.608Z,95737.00
2024-05-09T11:02:40.667Z,95734.00
2024-05-09T11:03:40.885Z,95734.00
2024-05-09T11:04:40.802Z,95735.00
2024-05-09T11:05:41.025Z,95730.00
2024-05-09T11:06:41.008Z,95731.00
2024-05-09T11:07:41.042Z,95733.00
2024-05-09T11:08:41.171Z,95732.00
2024-05-09T11:09:41.292Z,95731.00
2024-05-09T11:10:41.442Z,95733.00
2024-05-09T11:11:41.542Z,95734.00
2024-05-09T11:12:41.609Z,95729.00
2024-05-09T11:13:41.717Z,95731.00
2024-05-09T11:14:41.800Z,95729.00
2024-05-09T11:15:41.945Z,95728.00
2024-05-09T11:16:42.032Z,95729.00
2024-05-09T11:17:42.197Z,95727.00
2024-05-09T11:18:42.432Z,95729.00
2024-05-09T11:19:42.480Z,95728.00
2024-05-09T11:20:42.561Z,95728.00
2024-05-09T11:21:42.675Z,95727.00
2024-05-09T11:22:42.628Z,95725.00
2024-05-09T11:23:42.756Z,95727.00
2024-05-09T11:24:42.882Z,95727.00
2024-05-09T11:25:42.939Z,95727.00
2024-05-09T11:26:43.040Z,95726.00
2024-05-09T11:27:43.185Z,95727.00
2024-05-09T11:28:43.265Z,95727.00
2024-05-09T11:29:43.382Z,95729.00
2024-05-09T11:30:43.477Z,95728.00
2024-05-09T11:31:43.644Z,95729.00
2024-05-09T11:32:43.759Z,95730.00
2024-05-09T11:33:43.938Z,95728.00
2024-05-09T11:34:43.896Z,95732.00
2024-05-09T11:35:43.954Z,95733.00
2024-05-09T11:36:44.253Z,95732.00
2024-05-09T11:37:44.142Z,95733.00
2024-05-09T11:38:44.246Z,95733.00
2024-05-09T11:39:44.423Z,95733.00
2024-05-09T11:40:44.485Z,95732.00
2024-05-09T11:41:44.570Z,95730.00
2024-05-09T11:42:44.662Z,95728.00
2024-05-09T11:43:44.732Z,95727.00
2024-05-09T11:44:44.824Z,95728.00
2024-05-09T11:45:44.974Z,95726.00
2024-05-09T11:46:45.042Z,95726.00
2024-05-09T11:47:45.205Z,95723.00
2024-05-09T11:48:45.353Z,95723.00
2024-05-09T11:49:45.352Z,95718.00
2024-05-09T11:50:45.427Z,95717.00
2024-05-09T11:51:45.600Z,95719.00
2024-05-09T11:52:45.645Z,95718.00
2024-05-09T11:53:45.758Z,95716.00
2024-05-09T11:54:45.893Z,95714.00